createdAt,value
2023-04-09T00:00:16.610Z,77.32
2023-04-09T00:02:43.620Z,81.25
2023-04-09T00:05:10.336Z,79.63
2023-04-09T00:07:37.050Z,78.45
2023-04-09T00:10:03.938Z,75.65
2023-04-09T00:12:30.778Z,71.50
2023-04-09T00:14:57.725Z,77.95
2023-04-09T00:17:24.566Z,75.05
2023-04-09T00:19:51.409Z,81.32
2023-04-09T00:22:18.063Z,82.40
2023-04-09T00:24:44.832Z,79.07
2023-04-09T00:27:11.562Z,86.57
2023-04-09T00:29:38.311Z,87.07
2023-04-09T00:32:05.472Z,88.45
2023-04-09T00:34:32.325Z,89.15
2023-04-09T00:36:59.184Z,97.45
2023-04-09T00:39:26.987Z,100.43
2023-04-09T00:42:02.580Z,99.00
2023-04-09T00:46:58.877Z,96.85
2023-04-09T00:49:26.519Z,92.43
2023-04-09T00:51:53.898Z,81.80
2023-04-09T00:54:20.724Z,78.95
2023-04-09T00:56:47.818Z,75.97
2023-04-09T00:59:15.398Z,71.88
2023-04-09T01:01:42.101Z,76.82
2023-04-09T01:04:08.958Z,69.53
2023-04-09T01:06:49.511Z,75.35
2023-04-09T01:09:28.581Z,77.78
2023-04-09T01:12:07.606Z,76.82
2023-04-09T01:14:40.764Z,74.18
2023-04-09T01:17:36.241Z,75.07
2023-04-09T01:20:09.181Z,71.88
2023-04-09T01:22:44.909Z,69.60
2023-04-09T01:25:34.710Z,71.38
2023-04-09T01:28:22.474Z,77.15
2023-04-09T01:30:55.913Z,79.78
2023-04-09T01:33:24.791Z,78.70
2023-04-09T01:35:52.828Z,78.28
2023-04-09T01:38:23.103Z,79.95
2023-04-09T01:40:50.826Z,76.80
2023-04-09T01:43:19.084Z,69.85
2023-04-09T01:45:47.151Z,74.80
2023-04-09T01:48:14.948Z,74.20
2023-04-09T01:50:42.031Z,71.43
2023-04-09T01:53:09.103Z,68.40
2023-04-09T01:55:35.741Z,75.35
2023-04-09T01:58:02.379Z,78.03
2023-04-09T02:00:38.163Z,71.13
2023-04-09T02:03:30.676Z,72.15
2023-04-09T02:06:17.466Z,72.40
2023-04-09T02:08:47.896Z,73.68
2023-04-09T02:11:15.994Z,66.93
2023-04-09T02:13:44.169Z,70.82
2023-04-09T02:16:13.758Z,71.25
2023-04-09T02:18:40.594Z,66.72
2023-04-09T02:21:07.304Z,70.25
2023-04-09T02:23:35.035Z,73.57
2023-04-09T02:26:01.911Z,72.95
2023-04-09T02:28:28.572Z,69.13
2023-04-09T02:30:55.520Z,70.13
2023-04-09T02:33:22.521Z,79.72
2023-04-09T02:35:49.249Z,83.90
2023-04-09T02:38:16.141Z,85.80
2023-04-09T02:40:43.094Z,84.00
2023-04-09T02:43:10.589Z,86.68
2023-04-09T02:45:37.805Z,88.05
2023-04-09T02:48:04.894Z,85.15
2023-04-09T02:50:35.211Z,80.93
2023-04-09T02:53:02.461Z,79.97
2023-04-09T02:55:29.200Z,83.43
2023-04-09T02:57:56.011Z,92.85
2023-04-09T03:00:22.913Z,88.10
2023-04-09T03:02:49.935Z,89.85
2023-04-09T03:05:16.793Z,89.95
2023-04-09T03:07:43.633Z,90.38
2023-04-09T03:10:10.750Z,98.38
2023-04-09T03:12:37.377Z,89.35
2023-04-09T03:15:05.161Z,92.30
2023-04-09T03:17:32.168Z,91.30
2023-04-09T03:19:59.270Z,94.45
2023-04-09T03:22:38.048Z,96.47
2023-04-09T03:25:09.850Z,92.97
2023-04-09T03:27:36.647Z,93.28
2023-04-09T03:30:04.026Z,103.50
2023-04-09T03:32:42.571Z,96.35
2023-04-09T03:35:12.755Z,96.15
2023-04-09T03:37:41.906Z,97.75
2023-04-09T03:40:15.005Z,93.95
2023-04-09T03:42:44.785Z,94.07
2023-04-09T03:45:14.730Z,93.80
2023-04-09T03:47:44.814Z,91.00
2023-04-09T03:50:12.579Z,94.88
2023-04-09T03:52:49.854Z,88.65
2023-04-09T03:55:16.561Z,89.97
2023-04-09T03:57:43.179Z,94.47
2023-04-09T04:00:14.323Z,91.32
2023-04-09T04:03:16.656Z,90.80
2023-04-09T04:06:12.937Z,95.00
2023-04-09T04:08:51.347Z,98.00
2023-04-09T04:11:21.926Z,93.00
2023-04-09T04:13:53.145Z,99.82
2023-04-09T04:16:19.999Z,95.65
2023-04-09T04:18:46.679Z,91.47
2023-04-09T04:21:14.607Z,92.15
2023-04-09T04:23:45.018Z,95.78
2023-04-09T04:26:18.968Z,91.25
2023-04-09T04:28:46.222Z,97.57
2023-04-09T04:31:22.833Z,92.28
2023-04-09T04:33:50.086Z,88.68
2023-04-09T04:36:16.741Z,94.47
2023-04-09T04:38:49.098Z,96.32
2023-04-09T04:41:22.371Z,85.07
2023-04-09T04:43:55.780Z,84.07
2023-04-09T04:46:24.635Z,91.40
2023-04-09T04:48:51.611Z,86.18
2023-04-09T04:51:19.155Z,83.20
2023-04-09T04:53:58.051Z,82.57
2023-04-09T04:56:24.995Z,82.55
2023-04-09T04:59:00.733Z,79.75
2023-04-09T05:01:33.786Z,85.22
2023-04-09T05:04:03.266Z,82.82
2023-04-09T05:06:34.310Z,82.35
2023-04-09T05:09:05.998Z,83.03
2023-04-09T05:11:40.537Z,84.75
2023-04-09T05:14:13.836Z,82.68
2023-04-09T05:16:40.926Z,83.28
2023-04-09T05:19:08.465Z,84.20
2023-04-09T05:21:35.262Z,79.78
2023-04-09T05:24:02.705Z,85.97
2023-04-09T05:26:32.116Z,82.85
2023-04-09T05:28:58.934Z,84.80
2023-04-09T05:31:26.227Z,81.13
2023-04-09T05:34:09.153Z,78.30
2023-04-09T05:36:39.944Z,78.22
2023-04-09T05:39:06.597Z,73.78
2023-04-09T05:41:33.648Z,72.75
2023-04-09T05:44:19.052Z,69.00
2023-04-09T05:46:45.773Z,71.35
2023-04-09T05:49:16.270Z,71.13
2023-04-09T05:51:45.337Z,74.80
2023-04-09T05:54:12.498Z,69.65
2023-04-09T05:56:39.198Z,73.20
2023-04-09T05:59:06.126Z,67.10
2023-04-09T06:01:33.097Z,69.05
2023-04-09T06:04:00.256Z,66.97
2023-04-09T06:06:30.038Z,71.63
2023-04-09T06:08:56.775Z,74.07
2023-04-09T06:11:23.348Z,72.13
2023-04-09T06:13:50.072Z,71.35
2023-04-09T06:16:17.628Z,67.63
2023-04-09T06:18:46.682Z,70.53
2023-04-09T06:21:15.884Z,74.43
2023-04-09T06:23:42.917Z,76.90
2023-04-09T06:26:09.563Z,67.13
2023-04-09T06:28:38.904Z,68.47
2023-04-09T06:31:05.807Z,69.90
2023-04-09T06:33:32.513Z,65.90
2023-04-09T06:35:59.127Z,67.85
2023-04-09T06:38:25.945Z,67.95
2023-04-09T06:40:52.632Z,68.43
2023-04-09T06:43:19.311Z,66.82
2023-04-09T06:45:50.936Z,70.65
2023-04-09T06:48:17.678Z,72.05
2023-04-09T06:50:45.321Z,71.85
2023-04-09T06:53:12.118Z,70.15
2023-04-09T06:55:38.765Z,71.97
2023-04-09T06:58:05.797Z,70.22
2023-04-09T07:00:32.632Z,73.00
2023-04-09T07:02:59.640Z,74.45
2023-04-09T07:05:26.456Z,76.32
2023-04-09T07:07:53.143Z,75.60
2023-04-09T07:10:19.890Z,79.18
2023-04-09T07:12:46.530Z,72.43
2023-04-09T07:15:13.230Z,74.18
2023-04-09T07:17:39.957Z,79.28
2023-04-09T07:20:07.069Z,78.75
2023-04-09T07:22:33.683Z,84.30
2023-04-09T07:25:00.681Z,82.53
2023-04-09T07:27:28.185Z,79.90
2023-04-09T07:29:56.788Z,79.57
2023-04-09T07:32:24.650Z,83.15
2023-04-09T07:34:52.886Z,79.63
2023-04-09T07:37:20.308Z,78.95
2023-04-09T07:39:47.849Z,72.82
2023-04-09T07:42:14.616Z,75.75
2023-04-09T07:44:41.279Z,68.93
2023-04-09T07:47:09.511Z,68.82
2023-04-09T07:49:38.049Z,70.68
2023-04-09T07:52:05.821Z,73.35
2023-04-09T07:54:33.761Z,71.93
2023-04-09T07:57:01.781Z,79.10
2023-04-09T07:59:29.660Z,69.95
2023-04-09T08:01:56.530Z,68.75
2023-04-09T08:04:23.360Z,73.30
2023-04-09T08:06:51.153Z,66.45
2023-04-09T08:09:18.634Z,67.15
2023-04-09T08:11:46.090Z,65.85
2023-04-09T08:14:13.925Z,66.20
2023-04-09T08:16:42.805Z,62.50
2023-04-09T08:19:10.237Z,58.97
2023-04-09T08:21:44.458Z,68.22
2023-04-09T08:24:12.134Z,68.53
2023-04-09T08:26:39.813Z,66.63
2023-04-09T08:29:06.921Z,65.00
2023-04-09T08:31:34.093Z,60.08
2023-04-09T08:34:01.199Z,56.35
2023-04-09T08:36:27.963Z,55.45
2023-04-09T08:38:56.130Z,59.67
2023-04-09T08:41:24.767Z,62.00
2023-04-09T08:43:58.293Z,58.10
2023-04-09T08:46:26.565Z,61.72
2023-04-09T08:48:54.240Z,59.25
2023-04-09T08:51:24.751Z,53.28
2023-04-09T08:54:02.081Z,52.97
2023-04-09T08:56:30.750Z,51.20
2023-04-09T08:58:57.580Z,48.63
2023-04-09T09:01:27.001Z,51.30
2023-04-09T09:04:05.056Z,46.53
2023-04-09T09:06:34.088Z,44.55
2023-04-09T09:09:10.974Z,42.35
2023-04-09T09:11:38.892Z,42.80
2023-04-09T09:14:08.788Z,42.83
2023-04-09T09:16:40.780Z,42.90
2023-04-09T09:19:07.478Z,42.38
2023-04-09T09:21:34.821Z,40.40
2023-04-09T09:24:01.848Z,40.72
2023-04-09T09:26:30.223Z,44.00
2023-04-09T09:29:00.616Z,40.20
2023-04-09T09:31:27.596Z,39.40
2023-04-09T09:33:54.452Z,39.88
2023-04-09T09:36:35.576Z,40.08
2023-04-09T09:39:10.246Z,41.88
2023-04-09T09:41:37.927Z,37.67
2023-04-09T09:44:07.439Z,39.45
2023-04-09T09:46:42.548Z,43.53
2023-04-09T09:49:09.706Z,37.95
2023-04-09T09:51:39.646Z,38.33
2023-04-09T09:54:08.814Z,38.55
2023-04-09T09:56:39.013Z,37.72
2023-04-09T09:59:22.487Z,43.00
2023-04-09T10:01:55.450Z,38.30
2023-04-09T10:04:24.420Z,36.80
2023-04-09T10:06:53.463Z,37.00
2023-04-09T10:09:22.073Z,39.50
2023-04-09T10:11:49.637Z,35.63
2023-04-09T10:14:17.817Z,35.50
2023-04-09T10:16:44.528Z,37.05
2023-04-09T10:19:14.720Z,35.88
2023-04-09T10:21:54.744Z,33.13
2023-04-09T10:24:22.143Z,36.50
2023-04-09T10:26:48.843Z,34.25
2023-04-09T10:29:16.828Z,33.75
2023-04-09T10:32:03.873Z,34.90
2023-04-09T10:34:35.622Z,31.60
2023-04-09T10:37:02.850Z,33.38
2023-04-09T10:39:33.511Z,33.75
2023-04-09T10:42:04.944Z,35.78
2023-04-09T10:44:32.252Z,33.13
2023-04-09T10:46:59.234Z,33.17
2023-04-09T10:49:27.126Z,33.10
2023-04-09T10:52:12.259Z,34.13
2023-04-09T10:54:45.424Z,37.03
2023-04-09T10:57:16.440Z,32.63
2023-04-09T10:59:46.138Z,32.80
2023-04-09T11:02:41.834Z,33.83
2023-04-09T11:05:17.651Z,35.17
2023-04-09T11:07:49.641Z,37.42
2023-04-09T11:10:16.415Z,36.00
2023-04-09T11:12:43.127Z,36.42
2023-04-09T11:15:20.005Z,33.80
2023-04-09T11:17:48.238Z,34.17
2023-04-09T11:20:20.774Z,34.72
2023-04-09T11:22:49.469Z,34.50
2023-04-09T11:25:24.419Z,38.20
2023-04-09T11:27:51.609Z,36.15
2023-04-09T11:30:18.960Z,34.80
2023-04-09T11:32:46.391Z,38.97
2023-04-09T11:35:17.969Z,37.45
2023-04-09T11:37:46.353Z,33.58
2023-04-09T11:40:23.211Z,37.67
2023-04-09T11:42:55.287Z,35.47
2023-04-09T11:45:27.636Z,36.42
2023-04-09T11:47:55.398Z,36.80
2023-04-09T11:50:22.559Z,35.88
2023-04-09T11:52:50.013Z,38.33
2023-04-09T11:55:29.786Z,40.78
2023-04-09T11:58:03.095Z,35.63
2023-04-09T12:00:29.863Z,37.97
2023-04-09T12:03:02.405Z,36.65
2023-04-09T12:05:34.583Z,38.92
2023-04-09T12:08:04.868Z,40.33
2023-04-09T12:10:36.150Z,37.40
2023-04-09T12:13:06.391Z,45.38
2023-04-09T12:15:35.080Z,38.22
2023-04-09T12:18:02.258Z,41.47
2023-04-09T12:20:36.215Z,41.35
2023-04-09T12:23:04.738Z,37.55
2023-04-09T12:25:33.792Z,34.78
2023-04-09T12:28:00.490Z,32.85
2023-04-09T12:30:27.364Z,30.75
2023-04-09T12:32:54.612Z,34.53
2023-04-09T12:35:22.442Z,35.95
2023-04-09T12:37:49.702Z,37.40
2023-04-09T12:40:17.217Z,40.38
2023-04-09T12:42:45.051Z,35.25
2023-04-09T12:45:14.818Z,35.88
2023-04-09T12:47:41.753Z,39.28
2023-04-09T12:50:11.313Z,38.55
2023-04-09T12:52:38.096Z,36.03
2023-04-09T12:55:05.896Z,38.10
2023-04-09T12:57:33.358Z,35.38
2023-04-09T13:00:00.460Z,35.67
2023-04-09T13:02:27.305Z,37.13
2023-04-09T13:04:54.045Z,34.70
2023-04-09T13:07:20.823Z,35.65
2023-04-09T13:09:51.347Z,30.73
2023-04-09T13:12:18.694Z,38.08
2023-04-09T13:14:46.753Z,37.72
2023-04-09T13:17:13.975Z,37.22
2023-04-09T13:19:42.725Z,39.85
2023-04-09T13:22:10.468Z,39.47
2023-04-09T13:24:38.296Z,33.70
2023-04-09T13:27:06.559Z,37.83
2023-04-09T13:29:33.236Z,34.50
2023-04-09T13:32:02.500Z,33.00
2023-04-09T13:34:29.130Z,35.85
2023-04-09T13:36:56.252Z,32.38
2023-04-09T13:39:22.869Z,30.70
2023-04-09T13:41:49.554Z,28.90
2023-04-09T13:44:16.323Z,31.60
2023-04-09T13:46:43.009Z,32.53
2023-04-09T13:49:09.707Z,34.17
2023-04-09T13:51:36.434Z,34.17
2023-04-09T13:54:05.785Z,29.90
2023-04-09T13:56:32.785Z,30.75
2023-04-09T13:58:59.506Z,30.73
2023-04-09T14:01:28.282Z,30.05
2023-04-09T14:03:55.365Z,31.00
2023-04-09T14:06:22.531Z,31.33
2023-04-09T14:08:49.188Z,34.78
2023-04-09T14:11:16.751Z,30.83
2023-04-09T14:13:43.506Z,32.50
2023-04-09T14:16:10.342Z,28.65
2023-04-09T14:18:37.147Z,29.40
2023-04-09T14:21:03.986Z,35.35
2023-04-09T14:23:30.697Z,32.63
2023-04-09T14:25:57.338Z,30.00
2023-04-09T14:28:23.973Z,29.80
2023-04-09T14:30:51.077Z,33.17
2023-04-09T14:33:17.919Z,30.67
2023-04-09T14:35:44.766Z,31.85
2023-04-09T14:38:11.503Z,30.55
2023-04-09T14:40:38.250Z,34.35
2023-04-09T14:43:04.879Z,33.58
2023-04-09T14:45:32.229Z,34.03
2023-04-09T14:47:58.881Z,33.38
2023-04-09T14:50:25.667Z,32.33
2023-04-09T14:52:52.525Z,34.83
2023-04-09T14:55:19.196Z,33.58
2023-04-09T14:57:45.865Z,33.08
2023-04-09T15:00:13.095Z,30.88
2023-04-09T15:02:39.976Z,32.10
2023-04-09T15:05:07.359Z,34.58
2023-04-09T15:07:34.144Z,33.53
2023-04-09T15:10:01.047Z,31.20
2023-04-09T15:12:29.019Z,34.72
2023-04-09T15:14:57.116Z,34.03
2023-04-09T15:17:25.009Z,32.05
2023-04-09T15:19:53.256Z,32.75
2023-04-09T15:22:20.662Z,32.97
2023-04-09T15:24:47.495Z,27.10
2023-04-09T15:27:14.185Z,29.67
2023-04-09T15:29:40.864Z,33.20
2023-04-09T15:32:07.632Z,29.45
2023-04-09T15:34:34.347Z,30.02
2023-04-09T15:37:00.962Z,31.70
2023-04-09T15:39:28.653Z,32.85
2023-04-09T15:41:57.682Z,29.73
2023-04-09T15:44:24.863Z,32.05
2023-04-09T15:46:51.673Z,31.08
2023-04-09T15:49:19.639Z,27.95
2023-04-09T15:51:46.570Z,34.53
2023-04-09T15:54:14.200Z,33.50
2023-04-09T15:56:41.031Z,32.22
2023-04-09T15:59:08.431Z,33.67
2023-04-09T16:01:36.481Z,32.67
2023-04-09T16:04:04.773Z,30.42
2023-04-09T16:06:31.917Z,33.00
2023-04-09T16:08:58.767Z,32.40
2023-04-09T16:11:26.061Z,32.08
2023-04-09T16:13:52.807Z,33.20
2023-04-09T16:16:20.282Z,33.28
2023-04-09T16:18:46.986Z,34.22
2023-04-09T16:21:13.716Z,35.40
2023-04-09T16:23:40.917Z,34.47
2023-04-09T16:26:07.627Z,35.70
2023-04-09T16:28:34.278Z,37.05
2023-04-09T16:31:01.203Z,37.33
2023-04-09T16:33:27.990Z,36.70
2023-04-09T16:35:54.636Z,37.53
2023-04-09T16:38:21.309Z,34.38
2023-04-09T16:40:48.052Z,35.60
2023-04-09T16:43:14.628Z,37.13
2023-04-09T16:45:41.249Z,35.90
2023-04-09T16:48:12.322Z,40.28
2023-04-09T16:50:40.275Z,35.05
2023-04-09T16:53:07.549Z,39.00
2023-04-09T16:55:34.667Z,36.65
2023-04-09T16:58:01.645Z,40.45
2023-04-09T17:00:28.415Z,34.25
2023-04-09T17:02:56.460Z,36.83
2023-04-09T17:05:23.431Z,34.58
2023-04-09T17:07:50.041Z,36.67
2023-04-09T17:10:16.765Z,35.75
2023-04-09T17:12:44.329Z,38.25
2023-04-09T17:15:11.333Z,38.50
2023-04-09T17:17:38.144Z,41.13
2023-04-09T17:20:05.760Z,37.63
2023-04-09T17:22:32.528Z,38.35
2023-04-09T17:24:59.189Z,36.30
2023-04-09T17:27:25.998Z,37.17
2023-04-09T17:29:53.714Z,36.03
2023-04-09T17:32:20.442Z,37.83
2023-04-09T17:34:49.312Z,37.75
2023-04-09T17:37:16.226Z,38.13
2023-04-09T17:39:42.963Z,36.95
2023-04-09T17:42:11.851Z,40.35
2023-04-09T17:44:38.936Z,42.25
2023-04-09T17:47:07.515Z,35.47
2023-04-09T17:49:34.554Z,36.33
2023-04-09T17:52:01.603Z,40.65
2023-04-09T17:54:35.147Z,35.83
2023-04-09T17:57:04.136Z,38.17
2023-04-09T17:59:32.186Z,35.92
2023-04-09T18:01:59.000Z,36.60
2023-04-09T18:04:26.240Z,39.78
2023-04-09T18:06:54.833Z,38.13
2023-04-09T18:09:21.430Z,39.10
2023-04-09T18:11:48.965Z,38.88
2023-04-09T18:14:15.767Z,34.47
2023-04-09T18:16:42.697Z,39.28
2023-04-09T18:19:10.136Z,38.38
2023-04-09T18:21:36.814Z,37.65
2023-04-09T18:24:04.233Z,36.90
2023-04-09T18:26:33.346Z,38.00
2023-04-09T18:29:01.415Z,28.85
2023-04-09T18:31:28.620Z,33.40
2023-04-09T18:33:55.391Z,36.40
2023-04-09T18:36:22.303Z,33.38
2023-04-09T18:38:49.066Z,33.97
2023-04-09T18:41:26.185Z,35.38
2023-04-09T18:43:53.307Z,31.25
2023-04-09T18:46:19.990Z,33.50
2023-04-09T18:48:49.217Z,28.98
2023-04-09T18:51:16.076Z,33.08
2023-04-09T18:53:43.515Z,33.25
2023-04-09T18:56:10.161Z,33.22
2023-04-09T18:58:36.741Z,34.63
2023-04-09T19:01:12.726Z,31.13
2023-04-09T19:03:40.340Z,34.25
2023-04-09T19:06:14.635Z,35.58
2023-04-09T19:08:41.615Z,33.95
2023-04-09T19:11:08.328Z,37.25
2023-04-09T19:13:35.730Z,30.83
2023-04-09T19:16:03.223Z,32.60
2023-04-09T19:18:31.063Z,33.30
2023-04-09T19:20:58.276Z,32.75
2023-04-09T19:23:25.632Z,31.83
2023-04-09T19:25:55.060Z,34.60
2023-04-09T19:28:22.449Z,33.55
2023-04-09T19:30:52.278Z,33.10
2023-04-09T19:33:23.385Z,33.35
2023-04-09T19:35:51.357Z,36.88
2023-04-09T19:38:19.150Z,31.77
2023-04-09T19:40:46.355Z,33.35
2023-04-09T19:43:13.817Z,33.70
2023-04-09T19:45:42.394Z,30.83
2023-04-09T19:48:09.133Z,32.00
2023-04-09T19:50:37.895Z,30.67
2023-04-09T19:53:07.765Z,31.25
2023-04-09T19:55:34.982Z,32.17
2023-04-09T19:58:02.135Z,32.20
2023-04-09T20:00:29.216Z,32.80
2023-04-09T20:02:57.234Z,35.53
2023-04-09T20:05:24.484Z,31.55
2023-04-09T20:07:52.576Z,34.78
2023-04-09T20:10:19.669Z,35.90
2023-04-09T20:12:50.302Z,32.63
2023-04-09T20:15:19.900Z,40.13
2023-04-09T20:17:48.168Z,38.13
2023-04-09T20:20:17.893Z,35.55
2023-04-09T20:22:47.469Z,33.30
2023-04-09T20:25:14.235Z,36.10
2023-04-09T20:27:41.060Z,33.33
2023-04-09T20:30:08.347Z,32.25
2023-04-09T20:32:38.680Z,34.28
2023-04-09T20:35:05.954Z,32.75
2023-04-09T20:37:32.618Z,32.83
2023-04-09T20:39:59.740Z,31.83
2023-04-09T20:42:27.244Z,31.17
2023-04-09T20:44:54.084Z,32.58
2023-04-09T20:47:22.025Z,32.13
2023-04-09T20:49:50.869Z,31.33
2023-04-09T20:52:17.868Z,29.75
2023-04-09T20:54:45.343Z,32.25
2023-04-09T20:57:13.903Z,30.48
2023-04-09T20:59:40.718Z,27.15
2023-04-09T21:02:08.471Z,29.98
2023-04-09T21:04:35.310Z,31.40
2023-04-09T21:07:01.926Z,29.80
2023-04-09T21:09:29.039Z,34.38
2023-04-09T21:11:55.701Z,34.83
2023-04-09T21:14:22.405Z,32.67
2023-04-09T21:16:49.114Z,33.13
2023-04-09T21:19:15.873Z,28.63
2023-04-09T21:21:42.481Z,32.10
2023-04-09T21:24:09.178Z,30.48
2023-04-09T21:26:49.064Z,29.60
2023-04-09T21:29:17.375Z,29.08
2023-04-09T21:31:44.117Z,29.15
2023-04-09T21:34:10.964Z,29.92
2023-04-09T21:36:39.265Z,32.08
2023-04-09T21:39:06.018Z,29.30
2023-04-09T21:41:32.692Z,30.02
2023-04-09T21:44:03.481Z,28.92
2023-04-09T21:46:30.233Z,27.85
2023-04-09T21:48:56.985Z,28.27
2023-04-09T21:51:23.625Z,30.40
2023-04-09T21:53:50.206Z,29.63
2023-04-09T21:56:16.882Z,29.17
2023-04-09T21:58:43.547Z,27.63
2023-04-09T22:01:19.228Z,30.20
2023-04-09T22:03:55.034Z,30.80
2023-04-09T22:06:21.705Z,24.88
2023-04-09T22:08:55.551Z,27.77
2023-04-09T22:11:28.024Z,25.98
2023-04-09T22:13:58.551Z,27.85
2023-04-09T22:16:26.292Z,24.88
2023-04-09T22:18:54.524Z,26.35
2023-04-09T22:21:22.304Z,27.77
2023-04-09T22:23:48.982Z,27.80
2023-04-09T22:26:15.748Z,26.50
2023-04-09T22:28:42.640Z,27.75
2023-04-09T22:31:09.310Z,27.33
2023-04-09T22:33:36.018Z,25.33
2023-04-09T22:36:02.655Z,28.58
2023-04-09T22:38:29.370Z,26.42
2023-04-09T22:40:56.087Z,26.38
2023-04-09T22:43:23.222Z,27.80
2023-04-09T22:45:51.962Z,27.90
2023-04-09T22:48:19.930Z,26.38
2023-04-09T22:50:47.377Z,27.45
2023-04-09T22:53:20.779Z,29.88
2023-04-09T22:55:51.631Z,27.40
2023-04-09T22:58:18.708Z,25.77
2023-04-09T23:00:47.002Z,27.65
2023-04-09T23:03:14.055Z,26.05
2023-04-09T23:05:40.902Z,26.65
2023-04-09T23:08:07.609Z,25.80
2023-04-09T23:10:34.697Z,27.50
2023-04-09T23:13:01.603Z,27.23
2023-04-09T23:15:28.562Z,27.13
2023-04-09T23:17:55.602Z,29.00
2023-04-09T23:20:22.347Z,29.20
2023-04-09T23:22:49.130Z,25.38
2023-04-09T23:25:16.532Z,28.38
2023-04-09T23:27:43.607Z,27.50
2023-04-09T23:30:10.682Z,27.80
2023-04-09T23:32:37.416Z,27.77
2023-04-09T23:35:04.423Z,26.48
2023-04-09T23:37:31.224Z,27.10
2023-04-09T23:39:59.274Z,27.40
2023-04-09T23:42:29.788Z,24.88
2023-04-09T23:44:56.399Z,28.17
2023-04-09T23:47:23.019Z,26.65
2023-04-09T23:49:49.980Z,25.45
2023-04-09T23:52:16.571Z,28.15
2023-04-09T23:54:49.519Z,25.85
2023-04-09T23:57:16.111Z,27.90
2023-04-09T23:59:42.678Z,27.63
